createdAt,value
2022-08-16T00:00:03.200Z,94441.08
2022-08-16T00:02:33.523Z,94444.70
2022-08-16T00:05:01.488Z,94441.27
2022-08-16T00:07:31.314Z,94443.79
2022-08-16T00:09:59.391Z,94445.85
2022-08-16T00:12:28.939Z,94440.16
2022-08-16T00:14:57.629Z,94434.97
2022-08-16T00:17:27.136Z,94435.37
2022-08-16T00:19:55.962Z,94431.33
2022-08-16T00:22:25.506Z,94434.19
2022-08-16T00:24:54.900Z,94436.23
2022-08-16T00:27:23.141Z,94439.33
2022-08-16T00:30:08.792Z,94434.70
2022-08-16T00:32:40.322Z,94435.73
2022-08-16T00:35:15.120Z,94436.70
2022-08-16T00:37:57.056Z,94440.45
2022-08-16T00:40:53.705Z,94434.71
2022-08-16T00:43:42.583Z,94439.22
2022-08-16T00:46:35.458Z,94442.27
2022-08-16T00:49:17.648Z,94449.64
2022-08-16T00:51:47.821Z,94466.30
2022-08-16T00:54:25.015Z,94467.33
2022-08-16T00:56:58.119Z,94467.62
2022-08-16T00:59:30.357Z,94469.41
2022-08-16T01:02:01.338Z,94469.45
2022-08-16T01:05:09.619Z,94467.02
2022-08-16T01:07:51.102Z,94463.08
2022-08-16T01:10:31.262Z,94460.55
2022-08-16T01:13:00.799Z,94454.71
2022-08-16T01:15:28.647Z,94453.70
2022-08-16T01:17:58.953Z,94456.19
2022-08-16T01:20:34.108Z,94456.46
2022-08-16T01:23:13.249Z,94452.54
2022-08-16T01:26:00.062Z,94453.31
2022-08-16T01:28:38.861Z,94453.54
2022-08-16T01:31:14.906Z,94453.40
2022-08-16T01:33:44.586Z,94458.90
2022-08-16T01:36:13.168Z,94454.52
2022-08-16T01:38:46.839Z,94455.70
2022-08-16T01:41:21.237Z,94458.73
2022-08-16T01:43:54.299Z,94461.98
2022-08-16T01:46:37.909Z,94457.98
2022-08-16T01:49:15.554Z,94456.15
2022-08-16T01:51:46.496Z,94456.47
2022-08-16T01:54:15.452Z,94467.08
2022-08-16T01:56:43.160Z,94466.84
2022-08-16T01:59:15.619Z,94470.59
2022-08-16T02:01:49.934Z,94466.36
2022-08-16T02:04:48.148Z,94461.07
2022-08-16T02:07:11.308Z,94463.25
2022-08-16T02:09:39.640Z,94469.00
2022-08-16T02:12:45.828Z,94472.69
2022-08-16T02:14:57.163Z,94474.02
2022-08-16T02:17:26.374Z,94481.45
2022-08-16T02:19:59.049Z,94479.71
2022-08-16T02:22:36.827Z,94487.29
2022-08-16T02:25:12.123Z,94501.14
2022-08-16T02:27:44.679Z,94501.70
2022-08-16T02:30:37.058Z,94487.91
2022-08-16T02:33:07.673Z,94484.27
2022-08-16T02:35:53.835Z,94482.47
2022-08-16T02:38:24.192Z,94482.26
2022-08-16T02:40:54.318Z,94485.27
2022-08-16T02:43:27.171Z,94480.23
2022-08-16T02:45:55.538Z,94484.33
2022-08-16T02:48:30.093Z,94480.52
2022-08-16T02:51:06.133Z,94476.42
2022-08-16T02:53:41.173Z,94475.30
2022-08-16T02:56:14.778Z,94472.48
2022-08-16T02:58:42.255Z,94476.91
2022-08-16T03:01:24.117Z,94477.41
2022-08-16T03:04:39.520Z,94479.45
2022-08-16T03:06:48.775Z,94497.02
2022-08-16T03:09:17.975Z,94507.30
2022-08-16T03:11:46.668Z,94504.21
2022-08-16T03:14:13.593Z,94495.67
2022-08-16T03:16:59.148Z,94485.81
2022-08-16T03:19:45.795Z,94482.70
2022-08-16T03:22:18.942Z,94490.49
2022-08-16T03:24:54.688Z,94505.48
2022-08-16T03:27:24.635Z,94501.77
2022-08-16T03:29:54.694Z,94497.52
2022-08-16T03:32:21.900Z,94507.46
2022-08-16T03:34:49.756Z,94504.75
2022-08-16T03:37:17.407Z,94507.49
2022-08-16T03:39:44.246Z,94513.24
2022-08-16T03:42:11.247Z,94514.71
2022-08-16T03:44:47.647Z,94517.75
2022-08-16T03:47:18.941Z,94517.56
2022-08-16T03:49:51.536Z,94518.55
2022-08-16T03:52:20.665Z,94516.97
2022-08-16T03:54:57.514Z,94520.38
2022-08-16T03:57:31.941Z,94523.01
2022-08-16T04:00:20.703Z,94525.64
2022-08-16T04:03:08.601Z,94528.70
2022-08-16T04:05:38.367Z,94528.83
2022-08-16T04:08:23.001Z,94526.23
2022-08-16T04:10:53.590Z,94526.14
2022-08-16T04:14:01.848Z,94526.04
2022-08-16T04:16:09.419Z,94530.38
2022-08-16T04:19:02.181Z,94532.11
2022-08-16T04:21:36.281Z,94535.54
2022-08-16T04:24:13.842Z,94532.56
2022-08-16T04:26:46.069Z,94528.77
2022-08-16T04:29:24.467Z,94527.05
2022-08-16T04:31:56.740Z,94529.42
2022-08-16T04:34:28.641Z,94530.59
2022-08-16T04:36:56.759Z,94533.69
2022-08-16T04:39:24.573Z,94529.34
2022-08-16T04:42:11.394Z,94528.20
2022-08-16T04:44:54.221Z,94520.94
2022-08-16T04:47:33.408Z,94520.19
2022-08-16T04:50:10.388Z,94519.64
2022-08-16T04:52:38.042Z,94516.56
2022-08-16T04:55:15.300Z,94517.65
2022-08-16T04:57:43.548Z,94521.49
2022-08-16T05:00:31.952Z,94523.66
2022-08-16T05:03:09.278Z,94527.84
2022-08-16T05:05:45.335Z,94528.27
2022-08-16T05:08:28.307Z,94531.61
2022-08-16T05:11:05.399Z,94526.91
2022-08-16T05:13:40.417Z,94526.78
2022-08-16T05:16:25.365Z,94526.18
2022-08-16T05:18:56.605Z,94520.14
2022-08-16T05:21:27.022Z,94508.96
2022-08-16T05:23:58.675Z,94509.38
2022-08-16T05:26:32.149Z,94501.03
2022-08-16T05:29:01.748Z,94497.02
2022-08-16T05:31:30.813Z,94489.21
2022-08-16T05:34:04.331Z,94491.43
2022-08-16T05:36:34.324Z,94484.98
2022-08-16T05:39:07.789Z,94485.46
2022-08-16T05:41:44.613Z,94486.59
2022-08-16T05:44:22.965Z,94491.39
2022-08-16T05:46:56.608Z,94485.55
2022-08-16T05:49:25.142Z,94486.55
2022-08-16T05:51:54.995Z,94481.29
2022-08-16T05:54:25.670Z,94489.34
2022-08-16T05:56:53.280Z,94488.04
2022-08-16T05:59:22.155Z,94493.41
2022-08-16T06:01:52.851Z,94490.54
2022-08-16T06:04:36.570Z,94482.84
2022-08-16T06:07:09.674Z,94484.89
2022-08-16T06:09:52.598Z,94485.64
2022-08-16T06:12:27.004Z,94472.48
2022-08-16T06:15:01.958Z,94472.80
2022-08-16T06:17:41.787Z,94479.39
2022-08-16T06:20:14.612Z,94481.05
2022-08-16T06:22:44.660Z,94477.25
2022-08-16T06:25:15.152Z,94472.66
2022-08-16T06:27:57.564Z,94472.96
2022-08-16T06:30:28.727Z,94474.94
2022-08-16T06:32:55.783Z,94470.10
2022-08-16T06:35:22.680Z,94459.49
2022-08-16T06:37:51.368Z,94460.47
2022-08-16T06:40:20.969Z,94461.12
2022-08-16T06:42:57.307Z,94463.28
2022-08-16T06:45:24.591Z,94460.99
2022-08-16T06:47:56.547Z,94461.96
2022-08-16T06:50:29.551Z,94461.63
2022-08-16T06:53:09.086Z,94459.59
2022-08-16T06:55:38.274Z,94455.49
2022-08-16T06:58:08.117Z,94452.70
2022-08-16T07:00:37.616Z,94455.73
2022-08-16T07:03:27.208Z,94456.85
2022-08-16T07:05:54.105Z,94455.98
2022-08-16T07:08:21.322Z,94460.59
2022-08-16T07:10:48.131Z,94464.97
2022-08-16T07:13:23.056Z,94478.20
2022-08-16T07:16:05.920Z,94478.16
2022-08-16T07:18:35.340Z,94478.04
2022-08-16T07:21:02.406Z,94477.23
2022-08-16T07:23:36.990Z,94479.36
2022-08-16T07:26:10.298Z,94476.59
2022-08-16T07:28:37.675Z,94475.63
2022-08-16T07:31:05.371Z,94476.16
2022-08-16T07:33:52.897Z,94479.49
2022-08-16T07:36:22.796Z,94481.27
2022-08-16T07:38:50.712Z,94487.67
2022-08-16T07:41:18.698Z,94490.52
2022-08-16T07:43:47.537Z,94488.54
2022-08-16T07:46:38.100Z,94490.41
2022-08-16T07:49:04.809Z,94496.02
2022-08-16T07:51:38.219Z,94497.47
2022-08-16T07:54:09.892Z,94497.20
2022-08-16T07:56:39.382Z,94501.73
2022-08-16T07:59:07.384Z,94499.29
2022-08-16T08:01:35.308Z,94499.55
2022-08-16T08:04:04.139Z,94497.42
2022-08-16T08:06:36.211Z,94495.08
2022-08-16T08:09:04.594Z,94496.73
2022-08-16T08:11:33.038Z,94499.72
2022-08-16T08:14:03.617Z,94498.46
2022-08-16T08:16:33.167Z,94508.20
2022-08-16T08:19:02.825Z,94512.45
2022-08-16T08:21:58.324Z,94512.28
2022-08-16T08:24:21.274Z,94509.55
2022-08-16T08:26:49.787Z,94504.86
2022-08-16T08:29:22.934Z,94505.81
2022-08-16T08:31:53.818Z,94504.80
2022-08-16T08:34:22.289Z,94504.66
2022-08-16T08:36:54.520Z,94503.70
2022-08-16T08:39:22.693Z,94503.55
2022-08-16T08:41:51.195Z,94510.88
2022-08-16T08:44:28.985Z,94510.36
2022-08-16T08:47:01.531Z,94502.50
2022-08-16T08:49:50.535Z,94499.69
2022-08-16T08:52:35.137Z,94504.44
2022-08-16T08:55:10.674Z,94497.01
2022-08-16T08:57:41.152Z,94496.83
2022-08-16T09:00:13.134Z,94493.37
2022-08-16T09:02:44.504Z,94491.46
2022-08-16T09:05:14.866Z,94492.04
2022-08-16T09:08:00.226Z,94497.19
2022-08-16T09:10:30.702Z,94502.41
2022-08-16T09:12:59.081Z,94503.82
2022-08-16T09:15:33.223Z,94504.52
2022-08-16T09:18:02.006Z,94499.85
2022-08-16T09:20:59.351Z,94499.78
2022-08-16T09:23:36.225Z,94499.39
2022-08-16T09:26:44.398Z,94507.54
2022-08-16T09:29:15.639Z,94501.11
2022-08-16T09:31:42.859Z,94504.42
2022-08-16T09:34:10.444Z,94507.90
2022-08-16T09:36:44.962Z,94508.55
2022-08-16T09:39:16.250Z,94508.45
2022-08-16T09:41:53.458Z,94509.64
2022-08-16T09:45:09.641Z,94507.95
2022-08-16T09:47:11.436Z,94513.31
2022-08-16T09:49:41.159Z,94516.45
2022-08-16T09:52:09.966Z,94526.67
2022-08-16T09:54:38.030Z,94524.77
2022-08-16T09:57:05.291Z,94537.38
2022-08-16T09:59:38.246Z,94534.02
2022-08-16T10:02:27.287Z,94537.63
2022-08-16T10:04:55.067Z,94544.27
2022-08-16T10:07:22.855Z,94547.66
2022-08-16T10:09:54.880Z,94546.09
2022-08-16T10:12:55.913Z,94547.70
2022-08-16T10:15:26.191Z,94548.09
2022-08-16T10:18:00.564Z,94553.46
2022-08-16T10:20:32.662Z,94557.81
2022-08-16T10:23:06.714Z,94559.77
2022-08-16T10:27:19.264Z,94557.48
2022-08-16T10:28:28.661Z,94563.72
2022-08-16T10:31:03.356Z,94560.86
2022-08-16T10:33:33.286Z,94567.23
2022-08-16T10:36:04.521Z,94561.18
2022-08-16T10:38:36.826Z,94560.26
2022-08-16T10:41:08.476Z,94563.13
2022-08-16T10:43:38.597Z,94566.08
2022-08-16T10:46:39.414Z,94563.70
2022-08-16T10:48:55.244Z,94559.41
2022-08-16T10:51:34.410Z,94559.95
2022-08-16T10:54:21.184Z,94549.20
2022-08-16T10:56:57.698Z,94549.02
2022-08-16T10:59:32.988Z,94544.67
2022-08-16T11:02:59.479Z,94545.85
2022-08-16T11:05:08.753Z,94547.77
2022-08-16T11:07:45.523Z,94544.09
2022-08-16T11:16:25.446Z,94538.91
2022-08-16T11:19:05.288Z,94538.19
2022-08-16T11:22:11.159Z,94536.98
2022-08-16T11:24:41.227Z,94539.14
2022-08-16T11:27:19.594Z,94533.20
2022-08-16T11:29:53.221Z,94535.39
2022-08-16T11:32:30.018Z,94532.48
2022-08-16T11:35:14.223Z,94527.33
2022-08-16T11:40:44.499Z,94525.92
2022-08-16T11:43:16.783Z,94523.00
2022-08-16T11:45:54.223Z,94527.94
2022-08-16T11:48:23.580Z,94522.23
2022-08-16T11:50:50.980Z,94526.23
2022-08-16T11:53:18.880Z,94526.86
2022-08-16T11:55:45.785Z,94521.95
2022-08-16T11:58:18.336Z,94522.65
2022-08-16T12:00:50.576Z,94519.29
2022-08-16T12:03:20.431Z,94517.36
2022-08-16T12:05:56.646Z,94514.02
2022-08-16T12:08:26.030Z,94515.50
2022-08-16T12:10:59.350Z,94518.88
2022-08-16T12:13:29.114Z,94518.13
2022-08-16T12:15:56.371Z,94518.48
2022-08-16T12:18:23.826Z,94512.45
2022-08-16T12:20:51.856Z,94511.29
2022-08-16T12:23:22.349Z,94506.98
2022-08-16T12:25:49.781Z,94511.73
2022-08-16T12:28:25.531Z,94517.46
2022-08-16T12:31:05.779Z,94517.06
2022-08-16T12:33:33.109Z,94512.16
2022-08-16T12:36:13.239Z,94499.67
2022-08-16T12:38:48.458Z,94501.23
2022-08-16T12:41:25.121Z,94500.86
2022-08-16T12:43:53.215Z,94495.94
2022-08-16T12:46:25.846Z,94494.52
2022-08-16T12:48:58.608Z,94493.36
2022-08-16T12:51:58.731Z,94493.42
2022-08-16T12:54:25.027Z,94491.23
2022-08-16T12:56:51.869Z,94488.64
2022-08-16T12:59:20.940Z,94486.59
2022-08-16T13:01:50.524Z,94486.39
2022-08-16T13:04:24.732Z,94486.69
2022-08-16T13:06:52.891Z,94485.95
2022-08-16T13:09:26.428Z,94478.98
2022-08-16T13:12:16.322Z,94482.46
2022-08-16T13:14:44.199Z,94486.83
2022-08-16T13:17:18.901Z,94489.50
2022-08-16T13:20:07.825Z,94499.17
2022-08-16T13:22:44.928Z,94496.02
2022-08-16T13:25:20.936Z,94490.84
2022-08-16T13:28:02.910Z,94492.55
2022-08-16T13:30:37.778Z,94497.36
2022-08-16T13:33:13.432Z,94503.65
2022-08-16T13:35:55.424Z,94502.46
2022-08-16T13:38:25.752Z,94502.95
2022-08-16T13:40:56.583Z,94509.28
2022-08-16T13:43:27.397Z,94512.52
2022-08-16T13:45:56.070Z,94516.13
2022-08-16T13:48:26.203Z,94515.48
2022-08-16T13:50:56.334Z,94515.71
2022-08-16T13:53:25.490Z,94517.89
2022-08-16T13:55:58.767Z,94520.71
2022-08-16T13:58:35.695Z,94519.30
2022-08-16T14:01:09.940Z,94525.86
2022-08-16T14:03:39.899Z,94527.85
2022-08-16T14:06:10.870Z,94531.43
2022-08-16T14:08:41.870Z,94534.16
2022-08-16T14:11:11.715Z,94538.07
2022-08-16T14:13:41.022Z,94539.39
2022-08-16T14:16:24.146Z,94541.11
2022-08-16T14:18:55.627Z,94540.27
2022-08-16T14:21:24.063Z,94537.36
2022-08-16T14:23:52.421Z,94542.90
2022-08-16T14:26:21.488Z,94543.35
2022-08-16T14:28:50.903Z,94543.27
2022-08-16T14:31:18.831Z,94538.23
2022-08-16T14:33:46.109Z,94535.84
2022-08-16T14:36:18.848Z,94537.66
2022-08-16T14:38:57.004Z,94535.52
2022-08-16T14:41:24.148Z,94534.54
2022-08-16T14:43:50.864Z,94534.46
2022-08-16T14:46:17.689Z,94530.16
2022-08-16T14:48:44.651Z,94524.01
2022-08-16T14:51:11.575Z,94520.86
2022-08-16T14:53:39.258Z,94520.20
2022-08-16T14:56:17.306Z,94519.65
2022-08-16T14:58:59.735Z,94514.46
2022-08-16T15:01:42.379Z,94514.71
2022-08-16T15:04:37.920Z,94511.93
2022-08-16T15:07:01.068Z,94512.39
2022-08-16T15:09:28.673Z,94513.48
2022-08-16T15:11:55.423Z,94515.83
2022-08-16T15:14:22.271Z,94514.55
2022-08-16T15:16:49.463Z,94511.44
2022-08-16T15:19:17.250Z,94513.13
2022-08-16T15:21:44.194Z,94516.34
2022-08-16T15:24:16.825Z,94513.10
2022-08-16T15:26:49.597Z,94511.46
2022-08-16T15:29:16.409Z,94506.25
2022-08-16T15:31:44.846Z,94502.41
2022-08-16T15:34:22.114Z,94501.12
2022-08-16T15:36:53.948Z,94498.30
2022-08-16T15:39:30.416Z,94498.40
2022-08-16T15:42:11.457Z,94499.98
2022-08-16T15:44:57.935Z,94504.21
2022-08-16T15:47:27.643Z,94499.54
2022-08-16T15:50:09.779Z,94498.71
2022-08-16T15:52:43.066Z,94492.96
2022-08-16T15:55:29.578Z,94495.41
2022-08-16T15:58:01.740Z,94490.80
2022-08-16T16:00:48.533Z,94484.77
2022-08-16T16:03:18.376Z,94483.22
2022-08-16T16:05:48.130Z,94485.13
2022-08-16T16:08:24.138Z,94481.96
2022-08-16T16:10:54.920Z,94483.70
2022-08-16T16:13:21.903Z,94478.21
2022-08-16T16:15:55.930Z,94474.89
2022-08-16T16:18:27.285Z,94475.29
2022-08-16T16:21:04.718Z,94474.94
2022-08-16T16:23:35.402Z,94476.61
2022-08-16T16:26:09.920Z,94472.72
2022-08-16T16:29:07.660Z,94471.97
2022-08-16T16:31:24.564Z,94471.38
2022-08-16T16:33:56.543Z,94464.46
2022-08-16T16:36:28.728Z,94461.61
2022-08-16T16:38:56.506Z,94461.30
2022-08-16T16:41:26.527Z,94459.31
2022-08-16T16:43:54.429Z,94459.36
2022-08-16T16:46:43.393Z,94458.91
2022-08-16T16:49:12.022Z,94458.80
2022-08-16T16:51:44.464Z,94456.73
2022-08-16T16:54:27.669Z,94455.48
2022-08-16T16:56:55.207Z,94454.76
2022-08-16T16:59:23.799Z,94458.86
2022-08-16T17:01:59.482Z,94458.37
2022-08-16T17:04:38.891Z,94456.42
2022-08-16T17:07:10.685Z,94459.36
2022-08-16T17:09:40.186Z,94463.46
2022-08-16T17:12:08.907Z,94472.95
2022-08-16T17:14:38.475Z,94474.14
2022-08-16T17:17:08.450Z,94474.03
2022-08-16T17:19:40.227Z,94478.71
2022-08-16T17:22:14.621Z,94482.77
2022-08-16T17:24:50.743Z,94483.73
2022-08-16T17:27:32.988Z,94484.07
2022-08-16T17:30:29.543Z,94487.61
2022-08-16T17:33:13.473Z,94498.39
2022-08-16T17:35:55.231Z,94496.01
2022-08-16T17:38:38.980Z,94502.23
2022-08-16T17:41:10.893Z,94502.75
2022-08-16T17:43:44.170Z,94498.25
2022-08-16T17:46:46.732Z,94499.25
2022-08-16T17:48:59.442Z,94501.41
2022-08-16T17:51:27.709Z,94504.00
2022-08-16T17:53:55.201Z,94505.05
2022-08-16T17:56:21.966Z,94516.45
2022-08-16T17:58:48.666Z,94522.95
2022-08-16T18:01:15.556Z,94525.37
2022-08-16T18:04:06.141Z,94518.48
2022-08-16T18:06:29.375Z,94518.96
2022-08-16T18:09:02.685Z,94526.05
2022-08-16T18:11:34.031Z,94531.77
2022-08-16T18:14:01.287Z,94536.60
2022-08-16T18:16:28.041Z,94541.15
2022-08-16T18:18:54.759Z,94539.91
2022-08-16T18:21:41.141Z,94542.20
2022-08-16T18:24:09.745Z,94545.50
2022-08-16T18:26:36.903Z,94547.00
2022-08-16T18:29:05.565Z,94546.35
2022-08-16T18:31:33.273Z,94551.70
2022-08-16T18:34:01.558Z,94555.11
2022-08-16T18:36:29.054Z,94556.48
2022-08-16T18:38:55.873Z,94560.92
2022-08-16T18:41:24.891Z,94562.64
2022-08-16T18:44:23.247Z,94564.17
2022-08-16T18:46:44.939Z,94565.29
2022-08-16T18:49:18.171Z,94565.64
2022-08-16T18:51:45.700Z,94569.67
2022-08-16T18:54:16.586Z,94570.09
2022-08-16T18:56:55.434Z,94570.90
2022-08-16T18:59:27.024Z,94574.23
2022-08-16T19:01:56.923Z,94577.73
2022-08-16T19:04:54.878Z,94581.47
2022-08-16T19:07:22.528Z,94583.68
2022-08-16T19:09:49.469Z,94584.45
2022-08-16T19:12:16.361Z,94583.51
2022-08-16T19:14:45.590Z,94584.26
2022-08-16T19:17:12.807Z,94583.91
2022-08-16T19:19:39.526Z,94586.88
2022-08-16T19:22:06.800Z,94595.65
2022-08-16T19:24:33.615Z,94601.99
2022-08-16T19:27:01.594Z,94602.77
2022-08-16T19:29:29.141Z,94605.68
2022-08-16T19:31:55.932Z,94603.67
2022-08-16T19:34:22.638Z,94603.16
2022-08-16T19:36:49.403Z,94601.30
2022-08-16T19:39:17.843Z,94602.30
2022-08-16T19:41:53.874Z,94605.33
2022-08-16T19:44:22.477Z,94602.94
2022-08-16T19:46:49.787Z,94601.22
2022-08-16T19:49:17.073Z,94597.44
2022-08-16T19:51:48.598Z,94600.96
2022-08-16T19:54:16.186Z,94603.43
2022-08-16T19:56:42.966Z,94605.14
2022-08-16T19:59:19.440Z,94608.95
2022-08-16T20:01:49.421Z,94614.95
2022-08-16T20:04:16.363Z,94614.58
2022-08-16T20:06:43.246Z,94612.36
2022-08-16T20:09:14.668Z,94615.38
2022-08-16T20:11:46.314Z,94612.91
2022-08-16T20:14:24.009Z,94608.83
2022-08-16T20:16:52.231Z,94610.64
2022-08-16T20:19:19.674Z,94608.56
2022-08-16T20:21:46.369Z,94608.91
2022-08-16T20:24:33.045Z,94611.77
2022-08-16T20:26:59.985Z,94618.60
2022-08-16T20:29:28.275Z,94613.20
2022-08-16T20:31:56.377Z,94616.72
2022-08-16T20:34:23.166Z,94614.95
2022-08-16T20:36:49.928Z,94614.70
2022-08-16T20:39:17.175Z,94616.23
2022-08-16T20:41:44.745Z,94613.95
2022-08-16T20:44:12.692Z,94613.83
2022-08-16T20:46:40.235Z,94615.53
2022-08-16T20:49:09.081Z,94610.79
2022-08-16T20:51:46.725Z,94611.77
2022-08-16T20:54:16.918Z,94613.34
2022-08-16T20:56:43.674Z,94616.04
2022-08-16T20:59:10.392Z,94612.00
2022-08-16T21:01:46.444Z,94614.36
2022-08-16T21:04:21.789Z,94618.02
2022-08-16T21:06:53.843Z,94621.21
2022-08-16T21:09:25.614Z,94619.93
2022-08-16T21:11:54.624Z,94626.85
2022-08-16T21:14:21.939Z,94632.51
2022-08-16T21:16:48.769Z,94635.15
2022-08-16T21:19:15.623Z,94641.59
2022-08-16T21:21:42.419Z,94642.71
2022-08-16T21:24:09.314Z,94648.29
2022-08-16T21:26:39.006Z,94651.23
2022-08-16T21:29:07.820Z,94653.23
2022-08-16T21:31:40.996Z,94651.39
2022-08-16T21:34:08.419Z,94654.45
2022-08-16T21:36:36.544Z,94650.04
2022-08-16T21:39:06.318Z,94647.55
2022-08-16T21:41:34.751Z,94646.72
2022-08-16T21:44:01.736Z,94648.71
2022-08-16T21:46:28.542Z,94649.80
2022-08-16T21:48:55.280Z,94650.79
2022-08-16T21:51:22.740Z,94653.11
2022-08-16T21:53:49.555Z,94654.10
2022-08-16T21:56:17.259Z,94652.47
2022-08-16T21:58:46.342Z,94650.64
2022-08-16T22:01:13.634Z,94653.19
2022-08-16T22:03:40.682Z,94654.08
2022-08-16T22:06:12.548Z,94654.50
2022-08-16T22:08:48.125Z,94652.23
2022-08-16T22:11:23.682Z,94656.63
2022-08-16T22:13:57.833Z,94653.13
2022-08-16T22:16:32.378Z,94651.50
2022-08-16T22:19:00.035Z,94650.67
2022-08-16T22:21:26.864Z,94651.05
2022-08-16T22:23:56.734Z,94651.23
2022-08-16T22:26:30.615Z,94650.05
2022-08-16T22:29:03.557Z,94650.98
2022-08-16T22:31:31.928Z,94649.50
2022-08-16T22:33:58.754Z,94645.55
2022-08-16T22:36:27.883Z,94647.42
2022-08-16T22:38:58.267Z,94648.34
2022-08-16T22:41:32.226Z,94646.08
2022-08-16T22:44:01.398Z,94639.88
2022-08-16T22:46:28.634Z,94637.65
2022-08-16T22:48:55.369Z,94637.74
2022-08-16T22:51:24.796Z,94636.61
2022-08-16T22:53:52.891Z,94641.58
2022-08-16T22:56:20.743Z,94639.69
2022-08-16T22:58:48.536Z,94636.31
2022-08-16T23:01:17.770Z,94635.96
2022-08-16T23:03:44.515Z,94632.26
2022-08-16T23:06:12.585Z,94630.91
2022-08-16T23:08:41.657Z,94632.50
2022-08-16T23:11:21.367Z,94632.46
2022-08-16T23:13:56.763Z,94637.50
2022-08-16T23:16:33.261Z,94637.69
2022-08-16T23:19:07.655Z,94637.25
2022-08-16T23:21:37.447Z,94639.97
2022-08-16T23:24:05.764Z,94637.11
2022-08-16T23:26:43.985Z,94635.66
2022-08-16T23:29:25.706Z,94638.48
2022-08-16T23:32:11.501Z,94636.70
2022-08-16T23:34:38.425Z,94642.18
2022-08-16T23:37:05.469Z,94644.15
2022-08-16T23:39:33.077Z,94642.52
2022-08-16T23:42:00.352Z,94641.85
2022-08-16T23:44:55.664Z,94634.15
2022-08-16T23:47:13.877Z,94634.75
2022-08-16T23:50:01.334Z,94636.61
2022-08-16T23:52:45.191Z,94637.92
2022-08-16T23:55:14.394Z,94630.27
2022-08-16T23:57:43.830Z,94631.48
